Time;durP1;ratioP1;P1;durP2;ratioP2;P2;SDS_P1;SDS_P2;PMS_P1;PMS_P2;Temp;Humidity;BMP_temperature;BMP_pressure;BME280_temperature;BME280_humidity;BME280_pressure;Samples;Min_cycle;Max_cycle;Signal;HPM_P1;HPM_P2
2023/08/20 00:00:11;;;;;;;0.45;0.45;;;;;;;;;;1053035;28;20152;-75
2023/08/20 00:00:42;;;;;;;2.33;1.92;;;;;;;;;;1052674;28;20428;-75
2023/08/20 00:01:14;;;;;;;3.40;1.55;;;;;;;;;;1052621;28;20024;-75
2023/08/20 00:01:45;;;;;;;0.10;0.10;;;;;;;;;;1052853;28;20024;-75
2023/08/20 00:02:17;;;;;;;0.17;0.17;;;;;;;;;;1052725;28;20036;-75
2023/08/20 00:02:49;;;;;;;12.80;0.80;;;;;;;;;;1052951;28;20487;-76
2023/08/20 00:03:19;;;;;;;1.13;0.80;;;;;;;;;;1052679;28;20016;-76
2023/08/20 00:03:51;;;;;;;2.28;1.38;;;;;;;;;;1048553;28;20489;-76
2023/08/20 00:04:22;;;;;;;1.80;1.40;;;;;;;;;;1048602;28;20020;-76
2023/08/20 00:04:52;;;;;;;0.60;0.60;;;;;;;;;;1048894;28;20119;-75
2023/08/20 00:05:23;;;;;;;1.10;0.95;;;;;;;;;;1048660;28;20021;-76
2023/08/20 00:05:53;;;;;;;0.65;0.65;;;;;;;;;;1052682;28;20031;-76
2023/08/20 00:06:24;;;;;;;0.20;0.20;;;;;;;;;;1052800;28;20488;-76
2023/08/20 00:06:54;;;;;;;0.25;0.20;;;;;;;;;;1052768;28;20041;-76
2023/08/20 00:07:25;;;;;;;0.30;0.30;;;;;;;;;;1053038;28;20024;-76
2023/08/20 00:07:55;;;;;;;0.10;0.10;;;;;;;;;;1053107;28;20115;-76
2023/08/20 00:08:26;;;;;;;0.25;0.25;;;;;;;;;;1052805;28;20577;-77
2023/08/20 00:08:56;;;;;;;0.10;0.10;;;;;;;;;;1052713;28;20491;-75
2023/08/20 00:09:27;;;;;;;0.00;0.00;;;;;;;;;;1052800;28;20460;-75
2023/08/20 00:09:58;;;;;;;0.20;0.20;;;;;;;;;;1052591;28;20178;-75
2023/08/20 00:10:28;;;;;;;0.30;0.30;;;;;;;;;;1052824;28;20036;-75
2023/08/20 00:10:59;;;;;;;0.57;0.57;;;;;;;;;;1048373;28;20047;-75
2023/08/20 00:11:30;;;;;;;1.45;1.35;;;;;;;;;;1048683;28;20032;-75
2023/08/20 00:12:02;;;;;;;0.17;0.17;;;;;;;;;;1048578;28;20424;-75
2023/08/20 00:12:33;;;;;;;0.05;0.05;;;;;;;;;;1048987;28;20021;-75
2023/08/20 00:13:04;;;;;;;0.10;0.10;;;;;;;;;;1048400;28;20465;-75
2023/08/20 00:13:34;;;;;;;0.40;0.40;;;;;;;;;;1048641;28;20034;-75
2023/08/20 00:14:05;;;;;;;1.10;0.57;;;;;;;;;;1048693;28;20036;-75
2023/08/20 00:14:58;;;;;;;0.10;0.10;;;;;;;;;;1052887;28;20020;-75
2023/08/20 00:15:28;;;;;;;0.17;0.17;;;;;;;;;;1053101;28;20031;-75
2023/08/20 00:15:59;;;;;;;0.52;0.38;;;;;;;;;;1048696;28;20406;-76
2023/08/20 00:16:29;;;;;;;1.75;0.65;;;;;;;;;;1048634;28;20060;-77
2023/08/20 00:17:00;;;;;;;0.55;0.55;;;;;;;;;;1048481;28;20047;-76
2023/08/20 00:17:31;;;;;;;0.00;0.00;;;;;;;;;;1044501;28;20031;-76
2023/08/20 00:18:02;;;;;;;0.15;0.15;;;;;;;;;;1048568;28;20047;-77
2023/08/20 00:18:33;;;;;;;0.63;0.63;;;;;;;;;;1048756;28;20543;-76
2023/08/20 00:19:04;;;;;;;0.30;0.20;;;;;;;;;;1048497;28;20416;-76
2023/08/20 00:19:34;;;;;;;0.03;0.03;;;;;;;;;;1048912;28;20090;-76
2023/08/20 00:20:10;;;;;;;0.25;0.17;;;;;;;;;;1048665;28;20016;-76
2023/08/20 00:20:40;;;;;;;0.13;0.13;;;;;;;;;;1050563;28;20036;-77
2023/08/20 00:21:11;;;;;;;0.10;0.10;;;;;;;;;;1052598;28;20111;-77
2023/08/20 00:21:42;;;;;;;1.08;0.40;;;;;;;;;;1048554;28;20107;-75
2023/08/20 00:22:13;;;;;;;0.10;0.10;;;;;;;;;;1044313;28;20079;-75
2023/08/20 00:22:45;;;;;;;0.08;0.08;;;;;;;;;;1040527;28;20536;-75
2023/08/20 00:23:15;;;;;;;0.00;0.00;;;;;;;;;;1047179;23;20028;-75
2023/08/20 00:23:46;;;;;;;0.75;0.60;;;;;;;;;;1044688;28;20060;-75
2023/08/20 00:24:16;;;;;;;0.00;0.00;;;;;;;;;;1048864;28;20543;-75
2023/08/20 00:24:47;;;;;;;0.57;0.57;;;;;;;;;;1052786;28;20471;-77
2023/08/20 00:25:18;;;;;;;0.57;0.57;;;;;;;;;;1052500;28;20047;-77
2023/08/20 00:25:48;;;;;;;0.20;0.20;;;;;;;;;;1052665;28;20024;-77
2023/08/20 00:26:19;;;;;;;29.05;0.80;;;;;;;;;;1048512;28;20028;-77
2023/08/20 00:26:50;;;;;;;0.73;0.25;;;;;;;;;;1044515;28;20024;-75
2023/08/20 00:27:20;;;;;;;1.92;0.68;;;;;;;;;;1048438;28;20055;-75
2023/08/20 00:27:51;;;;;;;0.47;0.47;;;;;;;;;;1048732;28;20028;-77
2023/08/20 00:28:21;;;;;;;1.10;0.32;;;;;;;;;;1052544;28;20043;-77
2023/08/20 00:28:52;;;;;;;2.08;1.98;;;;;;;;;;1048839;28;20494;-77
2023/08/20 00:29:22;;;;;;;0.15;0.15;;;;;;;;;;1048358;28;20025;-77
2023/08/20 00:29:53;;;;;;;0.22;0.22;;;;;;;;;;1044276;28;20475;-77
2023/08/20 00:30:23;;;;;;;0.60;0.47;;;;;;;;;;1040141;28;20150;-77
2023/08/20 00:30:54;;;;;;;0.40;0.40;;;;;;;;;;1036053;28;20401;-77
2023/08/20 00:31:24;;;;;;;0.03;0.03;;;;;;;;;;1040274;28;20108;-77
2023/08/20 00:31:55;;;;;;;0.40;0.40;;;;;;;;;;1044399;28;20029;-75
2023/08/20 00:32:25;;;;;;;0.45;0.45;;;;;;;;;;1044372;28;20033;-75
2023/08/20 00:32:56;;;;;;;0.70;0.70;;;;;;;;;;1048343;28;20024;-75
2023/08/20 00:33:26;;;;;;;0.68;0.68;;;;;;;;;;1048278;28;20043;-75
2023/08/20 00:33:56;;;;;;;1.75;0.63;;;;;;;;;;1048519;28;20025;-75
2023/08/20 00:34:27;;;;;;;0.70;0.63;;;;;;;;;;1048551;28;20032;-76
2023/08/20 00:34:57;;;;;;;0.30;0.30;;;;;;;;;;1048205;28;20031;-77
2023/08/20 00:35:28;;;;;;;9.52;2.17;;;;;;;;;;1048420;28;20035;-77
2023/08/20 00:35:58;;;;;;;0.10;0.10;;;;;;;;;;1048309;28;20105;-77
2023/08/20 00:36:29;;;;;;;0.32;0.32;;;;;;;;;;1044346;28;20090;-77
2023/08/20 00:36:59;;;;;;;0.10;0.10;;;;;;;;;;1048394;28;20020;-77
2023/08/20 00:37:30;;;;;;;0.10;0.10;;;;;;;;;;1048456;28;20380;-77
2023/08/20 00:38:02;;;;;;;0.95;0.38;;;;;;;;;;1048451;28;20370;-77
2023/08/20 00:38:32;;;;;;;1.05;0.57;;;;;;;;;;1048990;28;20482;-77
2023/08/20 00:39:03;;;;;;;2.25;1.38;;;;;;;;;;1048751;28;20028;-77
2023/08/20 00:39:34;;;;;;;0.17;0.17;;;;;;;;;;1048649;28;20024;-77
2023/08/20 00:40:05;;;;;;;0.10;0.10;;;;;;;;;;1048113;28;20021;-77
2023/08/20 00:40:35;;;;;;;0.17;0.17;;;;;;;;;;1048619;28;20029;-77
2023/08/20 00:41:05;;;;;;;0.10;0.10;;;;;;;;;;1048340;28;20012;-77
2023/08/20 00:41:36;;;;;;;0.20;0.20;;;;;;;;;;1044350;28;20093;-77
2023/08/20 00:42:07;;;;;;;0.73;0.55;;;;;;;;;;1048209;28;20039;-77
2023/08/20 00:42:38;;;;;;;0.50;0.50;;;;;;;;;;1048428;28;20020;-76
2023/08/20 00:43:08;;;;;;;4.70;0.50;;;;;;;;;;1048588;28;20044;-76
2023/08/20 00:43:39;;;;;;;0.30;0.30;;;;;;;;;;1052606;28;20476;-76
2023/08/20 00:44:09;;;;;;;0.00;0.00;;;;;;;;;;1048325;28;20016;-76
2023/08/20 00:44:41;;;;;;;0.10;0.10;;;;;;;;;;1048522;28;20016;-76
2023/08/20 00:45:12;;;;;;;0.30;0.30;;;;;;;;;;1048103;28;20106;-76
2023/08/20 00:45:42;;;;;;;0.10;0.10;;;;;;;;;;1048633;28;20380;-77
2023/08/20 00:46:13;;;;;;;0.10;0.10;;;;;;;;;;1048298;28;20128;-77
2023/08/20 00:46:43;;;;;;;1.30;0.93;;;;;;;;;;1048502;28;20042;-76
2023/08/20 00:47:14;;;;;;;0.00;0.00;;;;;;;;;;1044156;28;20031;-76
2023/08/20 00:47:45;;;;;;;0.45;0.35;;;;;;;;;;1040212;28;20025;-77
2023/08/20 00:48:16;;;;;;;0.15;0.15;;;;;;;;;;1044377;28;20166;-77
2023/08/20 00:48:46;;;;;;;0.28;0.28;;;;;;;;;;1044488;28;20099;-77
2023/08/20 00:49:17;;;;;;;0.10;0.10;;;;;;;;;;1048435;28;20032;-77
2023/08/20 00:49:48;;;;;;;0.10;0.10;;;;;;;;;;1048779;28;20036;-76
2023/08/20 00:50:19;;;;;;;0.35;0.35;;;;;;;;;;1048292;28;20538;-76
2023/08/20 00:50:49;;;;;;;0.10;0.10;;;;;;;;;;1048535;28;20122;-76
2023/08/20 00:51:20;;;;;;;0.17;0.13;;;;;;;;;;1048348;28;20048;-76
2023/08/20 00:51:50;;;;;;;0.47;0.47;;;;;;;;;;1048483;28;20392;-77
2023/08/20 00:52:21;;;;;;;2.92;0.90;;;;;;;;;;1048318;28;20029;-75
2023/08/20 00:52:52;;;;;;;0.15;0.15;;;;;;;;;;1048331;28;20017;-75
2023/08/20 00:53:22;;;;;;;0.50;0.50;;;;;;;;;;1044031;28;20033;-75
2023/08/20 00:53:53;;;;;;;1.55;0.75;;;;;;;;;;1044509;28;20075;-75
2023/08/20 00:54:23;;;;;;;0.28;0.28;;;;;;;;;;1048460;28;20587;-75
2023/08/20 00:54:54;;;;;;;1.35;0.50;;;;;;;;;;1043965;28;20017;-76
2023/08/20 00:55:25;;;;;;;4.38;2.30;;;;;;;;;;1044353;28;20044;-75
2023/08/20 00:55:55;;;;;;;0.15;0.15;;;;;;;;;;1048285;28;20028;-76
2023/08/20 00:56:26;;;;;;;0.55;0.55;;;;;;;;;;1048574;28;20025;-75
2023/08/20 00:56:56;;;;;;;0.55;0.40;;;;;;;;;;1048241;28;20039;-76
2023/08/20 00:57:27;;;;;;;0.35;0.32;;;;;;;;;;1048348;28;20079;-76
2023/08/20 00:57:58;;;;;;;0.20;0.20;;;;;;;;;;1048316;28;20024;-76
2023/08/20 00:58:28;;;;;;;1.00;0.95;;;;;;;;;;1048560;28;20035;-73
2023/08/20 00:58:58;;;;;;;3.70;2.05;;;;;;;;;;1048580;28;20021;-73
2023/08/20 00:59:30;;;;;;;2.08;1.00;;;;;;;;;;1048364;28;20447;-74
2023/08/20 01:00:00;;;;;;;0.32;0.32;;;;;;;;;;1048129;28;20103;-75
2023/08/20 01:00:31;;;;;;;0.20;0.17;;;;;;;;;;1048554;28;20027;-75
2023/08/20 01:01:02;;;;;;;0.77;0.73;;;;;;;;;;1048309;28;20028;-75
2023/08/20 01:01:32;;;;;;;0.82;0.73;;;;;;;;;;1048756;28;20020;-75
2023/08/20 01:02:03;;;;;;;0.20;0.20;;;;;;;;;;1052174;28;20028;-75
2023/08/20 01:02:34;;;;;;;0.17;0.17;;;;;;;;;;1052693;28;20123;-74
2023/08/20 01:03:04;;;;;;;0.65;0.65;;;;;;;;;;1052473;28;20040;-75
2023/08/20 01:03:35;;;;;;;0.47;0.47;;;;;;;;;;1052436;28;20031;-76
2023/08/20 01:04:05;;;;;;;1.17;0.73;;;;;;;;;;1048168;28;20024;-75
2023/08/20 01:04:36;;;;;;;0.15;0.15;;;;;;;;;;1044260;28;20112;-75
2023/08/20 01:05:08;;;;;;;3.10;0.43;;;;;;;;;;1044082;28;20029;-74
2023/08/20 01:05:40;;;;;;;0.65;0.52;;;;;;;;;;1044443;28;20123;-76
2023/08/20 01:06:28;;;;;;;8.48;1.17;;;;;;;;;;1048855;28;20027;-76
2023/08/20 01:07:18;;;;;;;0.10;0.10;;;;;;;;;;1048176;28;20021;-77
2023/08/20 01:07:51;;;;;;;0.43;0.43;;;;;;;;;;1043935;28;20036;-76
2023/08/20 01:08:25;;;;;;;9.25;1.55;;;;;;;;;;1044157;28;20463;-75
2023/08/20 01:09:03;;;;;;;1.60;1.23;;;;;;;;;;1047543;28;20024;-75
2023/08/20 01:09:34;;;;;;;2.08;1.00;;;;;;;;;;1050396;28;20115;-76
2023/08/20 01:10:16;;;;;;;15.55;1.95;;;;;;;;;;1052343;28;20468;-76
2023/08/20 01:10:51;;;;;;;10.02;1.25;;;;;;;;;;1049932;28;20021;-76
2023/08/20 01:11:24;;;;;;;0.00;0.00;;;;;;;;;;1048583;28;20166;-75
2023/08/20 01:11:57;;;;;;;0.22;0.22;;;;;;;;;;1048622;28;20036;-75
2023/08/20 01:12:28;;;;;;;0.95;0.40;;;;;;;;;;1048693;28;20492;-75
2023/08/20 01:13:00;;;;;;;1.00;1.00;;;;;;;;;;1048231;28;20448;-75
2023/08/20 01:13:30;;;;;;;5.78;1.55;;;;;;;;;;1048375;28;20021;-76
2023/08/20 01:14:01;;;;;;;3.53;0.75;;;;;;;;;;1048252;28;20056;-76
2023/08/20 01:14:31;;;;;;;1.50;1.35;;;;;;;;;;1044401;28;20027;-76
2023/08/20 01:15:02;;;;;;;0.00;0.00;;;;;;;;;;1043959;28;20020;-76
2023/08/20 01:15:33;;;;;;;2.92;0.90;;;;;;;;;;1044158;28;20029;-76
2023/08/20 01:16:03;;;;;;;2.17;0.85;;;;;;;;;;1037490;23;23113;-76
2023/08/20 01:16:34;;;;;;;0.00;0.00;;;;;;;;;;1031456;28;20049;-76
2023/08/20 01:17:04;;;;;;;0.20;0.20;;;;;;;;;;1031506;28;20118;-76
2023/08/20 01:17:35;;;;;;;1.20;0.73;;;;;;;;;;1031636;28;20026;-77
2023/08/20 01:18:05;;;;;;;0.68;0.68;;;;;;;;;;1031581;28;20117;-76
2023/08/20 01:18:36;;;;;;;5.93;0.57;;;;;;;;;;1031812;28;20507;-75
2023/08/20 01:19:08;;;;;;;0.30;0.20;;;;;;;;;;1031594;28;20062;-77
2023/08/20 01:19:38;;;;;;;0.70;0.65;;;;;;;;;;1031690;28;20026;-76
2023/08/20 01:20:13;;;;;;;2.20;1.55;;;;;;;;;;1031495;28;20062;-76
2023/08/20 01:20:57;;;;;;;0.57;0.30;;;;;;;;;;1031641;28;20750;-75
2023/08/20 01:21:39;;;;;;;0.93;0.50;;;;;;;;;;1031651;28;20482;-75
2023/08/20 01:22:30;;;;;;;0.25;0.25;;;;;;;;;;1031116;28;20505;-76
2023/08/20 01:23:09;;;;;;;0.00;0.00;;;;;;;;;;1031270;28;20517;-76
2023/08/20 01:23:48;;;;;;;1.00;1.00;;;;;;;;;;1031283;28;20023;-77
2023/08/20 01:24:36;;;;;;;0.17;0.17;;;;;;;;;;1035391;28;20112;-77
2023/08/20 01:25:16;;;;;;;0.10;0.10;;;;;;;;;;1035151;28;20030;-76
2023/08/20 01:26:07;;;;;;;0.00;0.00;;;;;;;;;;1031690;28;20087;-76
2023/08/20 01:26:57;;;;;;;0.68;0.68;;;;;;;;;;1031673;28;20104;-76
2023/08/20 01:27:27;;;;;;;0.07;0.07;;;;;;;;;;1031575;28;20056;-76
2023/08/20 01:28:16;;;;;;;0.40;0.40;;;;;;;;;;1031112;28;20245;-76
2023/08/20 01:28:47;;;;;;;0.10;0.10;;;;;;;;;;1031335;28;20120;-75
2023/08/20 01:29:18;;;;;;;0.10;0.10;;;;;;;;;;1031149;28;20030;-75
2023/08/20 01:29:49;;;;;;;0.00;0.00;;;;;;;;;;1031294;28;20409;-75
2023/08/20 01:30:20;;;;;;;0.00;0.00;;;;;;;;;;1031222;28;20027;-75
2023/08/20 01:30:52;;;;;;;0.30;0.30;;;;;;;;;;1031283;28;20023;-75
2023/08/20 01:31:23;;;;;;;0.00;0.00;;;;;;;;;;1031271;28;20371;-75
2023/08/20 01:31:54;;;;;;;1.00;0.70;;;;;;;;;;1031259;28;20471;-75
2023/08/20 01:32:25;;;;;;;1.25;1.13;;;;;;;;;;1031324;28;20048;-75
2023/08/20 01:32:56;;;;;;;0.30;0.30;;;;;;;;;;1031246;28;20029;-75
2023/08/20 01:33:26;;;;;;;0.30;0.30;;;;;;;;;;1031144;28;20081;-75
2023/08/20 01:33:57;;;;;;;0.20;0.10;;;;;;;;;;1031506;28;20061;-75
2023/08/20 01:34:28;;;;;;;0.50;0.50;;;;;;;;;;1031709;28;20076;-75
2023/08/20 01:34:58;;;;;;;0.17;0.17;;;;;;;;;;1031388;28;20117;-75
2023/08/20 01:35:29;;;;;;;0.50;0.43;;;;;;;;;;1031627;28;20369;-75
2023/08/20 01:36:00;;;;;;;0.57;0.57;;;;;;;;;;1031403;28;20026;-75
2023/08/20 01:36:30;;;;;;;0.00;0.00;;;;;;;;;;1031777;28;20037;-76
2023/08/20 01:37:00;;;;;;;0.38;0.38;;;;;;;;;;1031366;28;20056;-76
2023/08/20 01:37:31;;;;;;;0.43;0.40;;;;;;;;;;1031237;28;20033;-77
2023/08/20 01:38:02;;;;;;;0.00;0.00;;;;;;;;;;1031062;28;20035;-76
2023/08/20 01:38:33;;;;;;;0.45;0.43;;;;;;;;;;1027350;28;20167;-76
2023/08/20 01:39:04;;;;;;;0.10;0.10;;;;;;;;;;1027384;28;20080;-75
2023/08/20 01:39:35;;;;;;;0.00;0.00;;;;;;;;;;1030858;28;20425;-76
2023/08/20 01:40:07;;;;;;;3.53;0.98;;;;;;;;;;1027269;28;20121;-76
2023/08/20 01:40:37;;;;;;;0.00;0.00;;;;;;;;;;1031309;28;20030;-75
2023/08/20 01:41:08;;;;;;;0.10;0.10;;;;;;;;;;1031290;28;20466;-75
2023/08/20 01:41:38;;;;;;;0.00;0.00;;;;;;;;;;1030969;28;20403;-75
2023/08/20 01:42:09;;;;;;;0.93;0.63;;;;;;;;;;1027387;28;20030;-75
2023/08/20 01:42:40;;;;;;;0.00;0.00;;;;;;;;;;1027279;28;20390;-75
2023/08/20 01:43:10;;;;;;;0.00;0.00;;;;;;;;;;1023128;29;20407;-75
2023/08/20 01:43:41;;;;;;;0.00;0.00;;;;;;;;;;1023276;29;20515;-75
2023/08/20 01:44:11;;;;;;;0.15;0.15;;;;;;;;;;1019482;29;20024;-75
2023/08/20 01:44:42;;;;;;;3.97;0.80;;;;;;;;;;1023384;28;20667;-75
2023/08/20 01:45:12;;;;;;;3.63;1.30;;;;;;;;;;1023061;28;20057;-75
2023/08/20 01:45:43;;;;;;;0.05;0.05;;;;;;;;;;1023203;28;20193;-75
2023/08/20 01:46:13;;;;;;;0.00;0.00;;;;;;;;;;1023186;29;20063;-75
2023/08/20 01:46:44;;;;;;;1.75;0.98;;;;;;;;;;1023385;28;20546;-75
2023/08/20 01:47:15;;;;;;;0.03;0.03;;;;;;;;;;1027144;28;20030;-76
2023/08/20 01:47:45;;;;;;;0.05;0.05;;;;;;;;;;1027578;28;20019;-76
2023/08/20 01:48:16;;;;;;;0.52;0.52;;;;;;;;;;1027611;28;20457;-76
2023/08/20 01:48:46;;;;;;;0.63;0.63;;;;;;;;;;1027621;28;20109;-76
2023/08/20 01:49:17;;;;;;;0.50;0.47;;;;;;;;;;1027434;28;20069;-76
2023/08/20 01:49:47;;;;;;;0.20;0.10;;;;;;;;;;1027169;28;20035;-76
2023/08/20 01:50:18;;;;;;;0.03;0.03;;;;;;;;;;1027196;28;20066;-76
2023/08/20 01:50:48;;;;;;;0.20;0.20;;;;;;;;;;1023209;28;20125;-75
2023/08/20 01:51:19;;;;;;;0.05;0.05;;;;;;;;;;1023302;28;20031;-75
2023/08/20 01:51:49;;;;;;;0.47;0.47;;;;;;;;;;1027270;28;20072;-76
2023/08/20 01:52:19;;;;;;;1.00;0.95;;;;;;;;;;1027177;28;20027;-76
2023/08/20 01:52:50;;;;;;;1.17;1.08;;;;;;;;;;1027185;28;20018;-76
2023/08/20 01:53:20;;;;;;;0.47;0.20;;;;;;;;;;1027181;28;20026;-76
2023/08/20 01:53:51;;;;;;;1.60;0.68;;;;;;;;;;1027268;28;20030;-75
2023/08/20 01:54:21;;;;;;;1.85;1.08;;;;;;;;;;1023239;28;20027;-75
2023/08/20 01:54:52;;;;;;;0.00;0.00;;;;;;;;;;1027248;28;20109;-75
2023/08/20 01:55:23;;;;;;;1.15;0.90;;;;;;;;;;1027035;28;20409;-75
2023/08/20 01:55:53;;;;;;;0.10;0.10;;;;;;;;;;1027299;28;20045;-75
2023/08/20 01:56:24;;;;;;;0.38;0.38;;;;;;;;;;1027047;28;20479;-75
2023/08/20 01:56:54;;;;;;;0.00;0.00;;;;;;;;;;1027059;28;20034;-75
2023/08/20 01:57:25;;;;;;;0.28;0.28;;;;;;;;;;1027026;28;20113;-75
2023/08/20 01:57:55;;;;;;;0.10;0.10;;;;;;;;;;1027189;28;20097;-75
2023/08/20 01:58:26;;;;;;;0.00;0.00;;;;;;;;;;1031304;28;20124;-76
2023/08/20 01:58:56;;;;;;;0.08;0.08;;;;;;;;;;1027199;28;20122;-76
2023/08/20 01:59:27;;;;;;;0.10;0.10;;;;;;;;;;1027505;28;20491;-76
2023/08/20 01:59:58;;;;;;;0.15;0.15;;;;;;;;;;1026867;28;20026;-76
2023/08/20 02:00:30;;;;;;;0.00;0.00;;;;;;;;;;1027340;28;20491;-76
2023/08/20 02:01:00;;;;;;;0.05;0.05;;;;;;;;;;1023027;28;20023;-76
2023/08/20 02:01:31;;;;;;;0.30;0.28;;;;;;;;;;1019618;29;20028;-76
2023/08/20 02:02:02;;;;;;;0.08;0.08;;;;;;;;;;1022956;29;20027;-76
2023/08/20 02:02:34;;;;;;;0.00;0.00;;;;;;;;;;1023455;28;20023;-76
2023/08/20 02:03:04;;;;;;;0.10;0.10;;;;;;;;;;1023427;28;20529;-76
2023/08/20 02:03:36;;;;;;;0.10;0.10;;;;;;;;;;1023176;28;20062;-76
2023/08/20 02:04:06;;;;;;;0.00;0.00;;;;;;;;;;1023086;29;20061;-76
2023/08/20 02:04:36;;;;;;;2.10;0.20;;;;;;;;;;1019521;29;20124;-76
2023/08/20 02:05:07;;;;;;;0.20;0.20;;;;;;;;;;1023213;28;20172;-76
2023/08/20 02:05:38;;;;;;;0.20;0.20;;;;;;;;;;1027191;28;20134;-76
2023/08/20 02:06:08;;;;;;;0.28;0.25;;;;;;;;;;1027065;28;20387;-75
2023/08/20 02:06:38;;;;;;;0.13;0.13;;;;;;;;;;1027579;28;20035;-75
2023/08/20 02:07:09;;;;;;;0.65;0.65;;;;;;;;;;1027322;28;20497;-75
2023/08/20 02:07:39;;;;;;;0.00;0.00;;;;;;;;;;1027544;28;20423;-75
2023/08/20 02:08:10;;;;;;;0.10;0.03;;;;;;;;;;1027417;28;20114;-75
2023/08/20 02:08:40;;;;;;;0.30;0.30;;;;;;;;;;1027481;28;20080;-75
2023/08/20 02:09:11;;;;;;;0.28;0.22;;;;;;;;;;1027413;28;20056;-75
2023/08/20 02:09:41;;;;;;;0.93;0.93;;;;;;;;;;1027425;28;20471;-75
2023/08/20 02:10:12;;;;;;;0.75;0.75;;;;;;;;;;1026922;28;20151;-75
2023/08/20 02:10:42;;;;;;;0.10;0.10;;;;;;;;;;1027255;28;20057;-75
2023/08/20 02:11:12;;;;;;;0.00;0.00;;;;;;;;;;1027138;28;20539;-76
2023/08/20 02:11:43;;;;;;;0.38;0.38;;;;;;;;;;1027244;28;20083;-76
2023/08/20 02:12:14;;;;;;;0.52;0.52;;;;;;;;;;1027093;28;20411;-76
2023/08/20 02:12:44;;;;;;;0.43;0.43;;;;;;;;;;1023088;29;20027;-76
2023/08/20 02:13:15;;;;;;;1.30;0.30;;;;;;;;;;1023040;29;20031;-76
2023/08/20 02:13:45;;;;;;;0.22;0.22;;;;;;;;;;1023328;28;20448;-76
2023/08/20 02:14:16;;;;;;;0.38;0.38;;;;;;;;;;1023147;28;20555;-76
2023/08/20 02:14:46;;;;;;;0.00;0.00;;;;;;;;;;1023299;28;20031;-76
2023/08/20 02:15:17;;;;;;;0.00;0.00;;;;;;;;;;1026852;28;20070;-76
2023/08/20 02:15:56;;;;;;;0.40;0.40;;;;;;;;;;1029135;28;20030;-76
2023/08/20 02:16:27;;;;;;;0.05;0.05;;;;;;;;;;1031083;28;20026;-76
2023/08/20 02:16:57;;;;;;;0.10;0.10;;;;;;;;;;1031094;28;20121;-76
2023/08/20 02:17:28;;;;;;;0.93;0.85;;;;;;;;;;1031153;28;20052;-75
2023/08/20 02:17:58;;;;;;;4.18;0.98;;;;;;;;;;1031052;28;20022;-75
2023/08/20 02:18:29;;;;;;;0.00;0.00;;;;;;;;;;1031576;28;20470;-75
2023/08/20 02:19:00;;;;;;;0.20;0.20;;;;;;;;;;1031419;28;20023;-75
2023/08/20 02:19:31;;;;;;;0.05;0.05;;;;;;;;;;1031137;28;20080;-74
2023/08/20 02:20:03;;;;;;;0.43;0.10;;;;;;;;;;1030780;28;20034;-74
2023/08/20 02:20:35;;;;;;;0.45;0.45;;;;;;;;;;1030730;28;20478;-75
2023/08/20 02:21:05;;;;;;;0.00;0.00;;;;;;;;;;1027006;28;20479;-75
2023/08/20 02:21:36;;;;;;;0.05;0.05;;;;;;;;;;1027202;28;20034;-74
2023/08/20 02:22:06;;;;;;;0.10;0.10;;;;;;;;;;1026861;28;20061;-74
2023/08/20 02:22:37;;;;;;;0.35;0.35;;;;;;;;;;1027187;28;20417;-76
2023/08/20 02:23:07;;;;;;;1.20;1.10;;;;;;;;;;1027089;28;20026;-76
2023/08/20 02:23:37;;;;;;;2.38;0.50;;;;;;;;;;1027113;28;20043;-76
2023/08/20 02:24:08;;;;;;;0.65;0.52;;;;;;;;;;1027113;28;20475;-76
2023/08/20 02:24:39;;;;;;;0.73;0.32;;;;;;;;;;1027161;28;20053;-76
2023/08/20 02:25:09;;;;;;;1.58;0.45;;;;;;;;;;1026931;28;20056;-76
2023/08/20 02:25:39;;;;;;;1.17;0.30;;;;;;;;;;1027082;28;20033;-76
2023/08/20 02:26:10;;;;;;;0.08;0.08;;;;;;;;;;1026933;28;20391;-76
2023/08/20 02:26:40;;;;;;;0.10;0.10;;;;;;;;;;1027473;28;20129;-76
2023/08/20 02:27:11;;;;;;;0.20;0.20;;;;;;;;;;1027327;28;20023;-76
2023/08/20 02:27:41;;;;;;;0.80;0.32;;;;;;;;;;1027387;28;20027;-76
2023/08/20 02:28:12;;;;;;;0.32;0.32;;;;;;;;;;1027399;28;20027;-76
2023/08/20 02:28:42;;;;;;;0.85;0.85;;;;;;;;;;1027031;28;20472;-76
2023/08/20 02:29:13;;;;;;;0.22;0.22;;;;;;;;;;1026933;28;20380;-76
2023/08/20 02:29:45;;;;;;;0.75;0.43;;;;;;;;;;1027140;28;20046;-76
2023/08/20 02:30:15;;;;;;;0.00;0.00;;;;;;;;;;1027318;28;20027;-76
2023/08/20 02:30:46;;;;;;;0.03;0.03;;;;;;;;;;1030730;28;20037;-76
2023/08/20 02:31:17;;;;;;;0.68;0.68;;;;;;;;;;1026906;28;20038;-76
2023/08/20 02:31:47;;;;;;;0.00;0.00;;;;;;;;;;1027116;28;20439;-76
2023/08/20 02:32:18;;;;;;;0.45;0.20;;;;;;;;;;1027094;28;20181;-76
2023/08/20 02:32:48;;;;;;;0.00;0.00;;;;;;;;;;1027123;28;20212;-76
2023/08/20 02:33:19;;;;;;;0.77;0.32;;;;;;;;;;1027280;28;20022;-76
2023/08/20 02:33:49;;;;;;;14.00;0.55;;;;;;;;;;1027192;28;20050;-76
2023/08/20 02:34:20;;;;;;;0.03;0.03;;;;;;;;;;1026931;28;20045;-77
2023/08/20 02:34:51;;;;;;;0.00;0.00;;;;;;;;;;1023093;28;20480;-75
2023/08/20 02:35:21;;;;;;;0.32;0.20;;;;;;;;;;1022876;29;20336;-75
2023/08/20 02:35:52;;;;;;;0.13;0.13;;;;;;;;;;1019222;29;20028;-75
2023/08/20 02:36:22;;;;;;;1.73;0.52;;;;;;;;;;1023133;28;20572;-75
2023/08/20 02:36:53;;;;;;;0.20;0.20;;;;;;;;;;1027109;28;20031;-75
2023/08/20 02:37:23;;;;;;;0.00;0.00;;;;;;;;;;1022941;28;20023;-75
2023/08/20 02:37:53;;;;;;;1.13;1.08;;;;;;;;;;1027144;28;20525;-75
2023/08/20 02:38:24;;;;;;;0.15;0.05;;;;;;;;;;1027096;28;20535;-76
2023/08/20 02:38:54;;;;;;;0.10;0.10;;;;;;;;;;1027031;28;20558;-76
2023/08/20 02:39:25;;;;;;;0.43;0.10;;;;;;;;;;1030970;28;20471;-77
2023/08/20 02:39:55;;;;;;;0.30;0.30;;;;;;;;;;1034023;28;20018;-76
2023/08/20 02:40:26;;;;;;;0.30;0.30;;;;;;;;;;1031023;28;20033;-76
2023/08/20 02:41:26;;;;;;;0.73;0.73;;;;;;;;;;1046958;23;20117;-76
2023/08/20 02:41:57;;;;;;;0.20;0.20;;;;;;;;;;1047879;28;20177;-75
2023/08/20 02:42:28;;;;;;;0.10;0.10;;;;;;;;;;1048314;28;20476;-76
2023/08/20 02:42:58;;;;;;;0.00;0.00;;;;;;;;;;1048256;28;20171;-76
2023/08/20 02:43:29;;;;;;;0.00;0.00;;;;;;;;;;1048455;28;20115;-76
2023/08/20 02:43:59;;;;;;;0.45;0.45;;;;;;;;;;1048227;28;20084;-76
2023/08/20 02:44:30;;;;;;;0.63;0.63;;;;;;;;;;1048447;28;20539;-76
2023/08/20 02:45:00;;;;;;;1.92;0.93;;;;;;;;;;1048114;28;20078;-76
2023/08/20 02:45:31;;;;;;;0.00;0.00;;;;;;;;;;1048403;28;20037;-76
2023/08/20 02:46:02;;;;;;;0.10;0.10;;;;;;;;;;1048209;28;20028;-76
2023/08/20 02:46:32;;;;;;;0.25;0.13;;;;;;;;;;1048379;28;20115;-76
2023/08/20 02:47:03;;;;;;;0.05;0.05;;;;;;;;;;1048226;28;20127;-76
2023/08/20 02:47:33;;;;;;;0.17;0.10;;;;;;;;;;1048353;28;20127;-76
2023/08/20 02:48:04;;;;;;;0.90;0.52;;;;;;;;;;1048310;28;20472;-76
2023/08/20 02:48:34;;;;;;;0.80;0.80;;;;;;;;;;1048068;28;20043;-76
2023/08/20 02:49:05;;;;;;;0.22;0.20;;;;;;;;;;1047962;28;20059;-76
2023/08/20 02:49:35;;;;;;;1.45;0.95;;;;;;;;;;1048041;28;20488;-76
2023/08/20 02:50:06;;;;;;;0.00;0.00;;;;;;;;;;1047852;28;20028;-75
2023/08/20 02:50:36;;;;;;;0.00;0.00;;;;;;;;;;1048446;28;20115;-75
2023/08/20 02:51:07;;;;;;;0.00;0.00;;;;;;;;;;1048305;28;20040;-75
2023/08/20 02:51:37;;;;;;;0.47;0.47;;;;;;;;;;1048336;28;20028;-75
2023/08/20 02:52:08;;;;;;;1.00;0.65;;;;;;;;;;1048207;28;20024;-75
2023/08/20 02:52:38;;;;;;;0.00;0.00;;;;;;;;;;1048384;28;20544;-75
2023/08/20 02:53:09;;;;;;;2.13;0.80;;;;;;;;;;1047933;28;20028;-75
2023/08/20 02:53:39;;;;;;;0.30;0.25;;;;;;;;;;1048000;28;20032;-75
2023/08/20 02:54:10;;;;;;;0.52;0.52;;;;;;;;;;1043789;28;20025;-76
2023/08/20 02:54:40;;;;;;;0.20;0.20;;;;;;;;;;1043996;28;20397;-76
2023/08/20 02:55:10;;;;;;;0.20;0.20;;;;;;;;;;1047821;28;20107;-76
2023/08/20 02:55:41;;;;;;;0.10;0.10;;;;;;;;;;1043906;28;20035;-76
2023/08/20 02:56:11;;;;;;;0.00;0.00;;;;;;;;;;1043778;28;20021;-76
2023/08/20 02:56:42;;;;;;;0.00;0.00;;;;;;;;;;1043952;28;20037;-76
2023/08/20 02:57:12;;;;;;;0.80;0.80;;;;;;;;;;1043682;28;20021;-76
2023/08/20 02:57:43;;;;;;;0.10;0.10;;;;;;;;;;1048135;28;20115;-76
2023/08/20 02:58:13;;;;;;;0.22;0.20;;;;;;;;;;1052153;28;20169;-76
2023/08/20 02:58:44;;;;;;;0.10;0.10;;;;;;;;;;1052211;28;20440;-76
2023/08/20 02:59:14;;;;;;;0.00;0.00;;;;;;;;;;1048272;28;20028;-76
2023/08/20 02:59:45;;;;;;;0.05;0.05;;;;;;;;;;1048344;28;20131;-76
2023/08/20 03:00:15;;;;;;;0.30;0.30;;;;;;;;;;1048246;28;20119;-76
2023/08/20 03:00:46;;;;;;;0.10;0.10;;;;;;;;;;1048388;28;20067;-75
2023/08/20 03:01:21;;;;;;;2.58;1.42;;;;;;;;;;1048228;28;20047;-75
2023/08/20 03:01:51;;;;;;;0.00;0.00;;;;;;;;;;1048351;28;20032;-75
2023/08/20 03:02:22;;;;;;;1.25;1.13;;;;;;;;;;1051926;28;20400;-75
2023/08/20 03:02:52;;;;;;;0.38;0.38;;;;;;;;;;1052188;28;20152;-75
2023/08/20 03:03:23;;;;;;;0.63;0.63;;;;;;;;;;1052097;28;20028;-75
2023/08/20 03:03:54;;;;;;;0.00;0.00;;;;;;;;;;1052096;28;20028;-75
2023/08/20 03:04:24;;;;;;;0.00;0.00;;;;;;;;;;1048358;28;20415;-75
2023/08/20 03:04:55;;;;;;;0.28;0.20;;;;;;;;;;1048218;28;20028;-76
2023/08/20 03:05:26;;;;;;;1.70;0.93;;;;;;;;;;1052053;28;20123;-75
2023/08/20 03:05:56;;;;;;;0.25;0.22;;;;;;;;;;1047793;28;20039;-76
2023/08/20 03:06:27;;;;;;;0.20;0.10;;;;;;;;;;1043841;28;20040;-76
2023/08/20 03:06:57;;;;;;;47.15;2.28;;;;;;;;;;1043809;28;20037;-75
2023/08/20 03:07:28;;;;;;;0.52;0.30;;;;;;;;;;1039632;28;20032;-76
2023/08/20 03:07:58;;;;;;;1.30;0.60;;;;;;;;;;1043798;28;20052;-75
2023/08/20 03:08:29;;;;;;;0.00;0.00;;;;;;;;;;1048141;28;20020;-75